Sedgwick Reserve, California Weather observations

Data are for 10 minute period ending at time listed.
 Day   Time   Solar   Ave.   Ave.  Ave.  Vector  Max.   Baro.   Total    
  of    of     Rad.   Air    Rel.  Wind   Wind   Wind  Press.  Precip.   
Year   Day            Temp.  Hum.  Speed  Dir.   Gust                    
2021   (PST)  Kw/m2    F      %     mph   deg.    mph    mb.     in.     
-------------------------------------------------------------------------
 290    0:00   0.00   49.2    30    1.5   354     5.0   974.5    0.00 
 290    0:10   0.00   49.7    30    1.2   341     5.0   974.5    0.00 
 290    0:20   0.00   49.9    30    0.3   360     2.7   974.5    0.00 
 290    0:30   0.00   50.1    30    0.3   356     3.0   974.4    0.00 
 290    0:40   0.00   50.4    30    0.3   358     2.0   974.4    0.00 
 290    0:50   0.00   50.4    30    0.7     0     3.7   974.3    0.00 
 290    1:00   0.00   51.2    29    2.4   360     5.8   974.3    0.00 
 290    1:10   0.00   51.5    28    2.2   350     5.0   974.1    0.00 
 290    1:20   0.00   52.2    28    0.0   351     0.7   974.0    0.00 
 290    1:30   0.00   51.5    28    0.7   357     3.1   973.9    0.00 
 290    1:40   0.00   51.5    29    0.0     0     0.0   973.8    0.00 
 290    1:50   0.00   50.8    29    0.0     0     0.0   973.7    0.00 
 290    2:00   0.00   50.6    29    0.0     0     0.0   973.7    0.00 
 290    2:10   0.00   50.5    29    0.0     0     0.0   973.6    0.00 
 290    2:20   0.00   50.3    29    0.0     0     0.0   973.6    0.00 
 290    2:30   0.00   49.7    30    0.0     0     0.0   973.5    0.00 
 290    2:40   0.00   49.2    30    0.5     0     2.0   973.4    0.00 
 290    2:50   0.00   48.4    31    1.4     3     4.4   973.3    0.00 
 290    3:00   0.00   49.1    30    0.0   334     0.7   973.2    0.00 
 290    3:10   0.00   49.8    29    0.0     0     0.0   973.2    0.00 
 290    3:20   0.00   49.4    30    0.0     0     0.0   973.1    0.00 
 290    3:30   0.00   49.4    29    0.0   350     1.5   973.1    0.00 
 290    3:40   0.00   49.2    30    0.0     0     0.0   973.1    0.00 
 290    3:50   0.00   49.2    30    0.2   318     2.1   973.1    0.00 
 290    4:00   0.00   49.4    29    1.6   290     4.5   973.1    0.00 
 290    4:10   0.00   49.9    29    1.5   288     3.3   973.3    0.00 
 290    4:20   0.00   50.3    29    1.7   288     3.0   973.6    0.00 
 290    4:30   0.00   50.7    28    1.5     9     4.3   973.5    0.00 
 290    4:40   0.00   51.1    28    2.3     7     4.4   973.5    0.00 
 290    4:50   0.00   50.4    28    0.1     7     1.3   973.4    0.00 
 290    5:00   0.00   50.4    28    0.2    10     2.5   973.3    0.00 
 290    5:10   0.00   50.5    28    2.6   351     6.0   973.2    0.00 
 290    5:20   0.00   51.1    27    0.4   327     4.5   973.2    0.00 
 290    5:30   0.00   50.8    28    0.0     0     0.0   973.2    0.00 
 290    5:40   0.00   49.9    29    0.3   310     1.9   973.2    0.00 
 290    5:50   0.00   49.8    29    0.4   308     1.8   973.3    0.00 
 290    6:00   0.00   49.7    29    0.0     0     0.0   973.4    0.00 
 290    6:10   0.00   49.4    29    0.8    12     3.1   973.6    0.00 
 290    6:20   0.01   48.6    30    2.5     6     4.7   973.6    0.00 
 290    6:30   0.01   49.0    30    2.3   353     5.2   973.6    0.00 
 290    6:40   0.03   49.8    29    0.9   303     3.5   973.7    0.00 
 290    6:50   0.12   50.3    29    2.3     1     4.3   973.7    0.00 
 290    7:00   0.17   52.3    28    0.0    11     1.5   973.7    0.00 
 290    7:10   0.20   54.0    26    0.3     9     1.8   973.8    0.00 
 290    7:20   0.24   56.5    25    0.0     0     0.7   973.9    0.00 
 290    7:30   0.27   60.0    23    0.0   347     0.7   974.0    0.00 
 290    7:40   0.31   63.5    21    0.4   354     1.9   974.1    0.00 
 290    7:50   0.34   66.3    20    2.4   142     4.5   974.2    0.00 
 290    8:00   0.37   66.8    19    3.6   149     6.4   974.2    0.00 
 290    8:10   0.40   68.2    18    3.3   145     5.6   974.4    0.00 
 290    8:20   0.43   69.6    18    3.9   145     5.6   974.5    0.00 
 290    8:30   0.45   70.5    17    6.3   159     9.1   974.5    0.00 
 290    8:40   0.48   71.1    16    4.5   141     8.0   974.5    0.00 
 290    8:50   0.51   71.4    16    4.7   150     8.0   974.4    0.00 
 290    9:00   0.53   72.0    16    6.1   153    10.2   974.5    0.00 
 290    9:10   0.56   72.9    15    6.3   145     9.4   974.5    0.00 
 290    9:20   0.58   73.8    15    5.6   152     8.8   974.4    0.00 
 290    9:30   0.60   73.4    15    7.3   165    10.4   974.4    0.00 
 290    9:40   0.62   73.4    15    8.1   159    11.3   974.3    0.00 
 290    9:50   0.64   74.8    15    5.7   148    10.2   974.2    0.00 
 290   10:00   0.66   74.9    15    8.0   152    13.3   974.1    0.00 
 290   10:10   0.69   75.3    15    5.7   171    12.1   974.1    0.00 
 290   10:20   0.68   75.8    15    7.7   156    12.8   974.1    0.00 
 290   10:30   0.20   74.0    16    8.4   154    13.0   974.0    0.00 
 290   10:40   0.81   75.1    16    5.6   191     9.6   974.0    0.00 
 290   10:50   0.74   75.9    16    9.0   230    16.7   974.1    0.00 
 290   11:00   0.57   74.8    16   10.6   243    17.1   974.2    0.00 
 290   11:10   0.62   74.0    19   10.3   250    17.2   974.3    0.00 
 290   11:20   0.68   74.4    21   10.8   229    21.5   974.3    0.00 
 290   11:30   0.72   73.3    28   12.2   213    19.6   974.3    0.00 
 290   11:40   0.72   72.8    30   11.4   224    17.0   974.3    0.00 
 290   11:50   0.71   72.0    29   12.0   240    17.8   974.2    0.00 
 290   12:00   0.71   72.1    28   11.0   227    20.4   974.1    0.00 
 290   12:10   0.70   71.4    27   10.9   218    18.1   974.1    0.00 
 290   12:20   0.69   71.6    26   11.5   218    17.0   973.8    0.00 
 290   12:30   0.68   70.9    29   10.9   225    17.1   973.6    0.00 
 290   12:40   0.67   71.5    33    9.4   242    15.8   973.5    0.00 
 290   12:50   0.66   71.0    33    9.8   232    16.4   973.2    0.00 
 290   13:00   0.65   71.2    34   10.4   230    16.0   973.0    0.00 
 290   13:10   0.63   71.3    33   10.5   232    16.0   972.9    0.00 
 290   13:20   0.61   70.9    33   12.0   230    18.1   972.8    0.00 
 290   13:30   0.59   70.9    34    9.6   243    15.6   972.9    0.00 
 290   13:40   0.57   70.6    34   10.7   228    16.6   972.8    0.00 
 290   13:50   0.55   70.4    35    9.9   249    17.2   972.6    0.00 
 290   14:00   0.53   70.2    36   11.4   260    16.3   972.5    0.00 
 290   14:10   0.51   69.5    36   12.1   242    19.1   972.6    0.00 
 290   14:20   0.48   69.8    35    9.8   229    16.9   972.7    0.00 
 290   14:30   0.46   68.8    35   12.5   232    18.8   972.8    0.00 
 290   14:40   0.43   68.3    36   11.5   234    18.1   972.8    0.00 
 290   14:50   0.40   69.0    36    8.2   220    15.0   972.9    0.00 
 290   15:00   0.37   68.3    39    9.5   226    16.0   972.9    0.00 
 290   15:10   0.34   68.4    39    8.3   222    16.3   972.9    0.00 
 290   15:20   0.31   67.0    44    8.1   253    14.1   972.9    0.00 
 290   15:30   0.28   66.9    45    7.3   252    12.5   972.9    0.00 
 290   15:40   0.25   66.5    45    8.7   240    14.2   973.0    0.00 
 290   15:50   0.22   66.3    47    5.6   210    10.5   972.8    0.00 
 290   16:00   0.19   66.5    47    6.8   240    10.2   972.6    0.00 
 290   16:10   0.17   65.8    48    5.9   215    12.8   972.7    0.00 
 290   16:20   0.14   65.3    49    6.8   217    10.7   972.6    0.00 
 290   16:30   0.10   65.0    49    6.7   213    11.0   972.4    0.00 
 290   16:40   0.07   64.1    51    5.4   228     9.8   972.4    0.00 
 290   16:50   0.04   63.9    52    5.9   252    10.2   972.7    0.00 
 290   17:00   0.03   63.0    54    7.4   251    12.1   973.0    0.00 
 290   17:10   0.01   62.3    55    7.6   230    12.5   973.0    0.00 
 290   17:20   0.01   61.5    57    5.7   218    10.7   972.9    0.00 
 290   17:30   0.00   60.9    59    3.2   213     8.9   972.7    0.00 
 290   17:40   0.00   60.4    61    2.4   226     5.2   972.5    0.00 
 290   17:50   0.00   59.8    64    2.2   237     5.3   972.4    0.00 
 290   18:00   0.00   59.1    65    0.9   240     3.3   972.5    0.00 
 290   18:10   0.00   58.0    66    1.7   235     3.1   972.5    0.00 
 290   18:20   0.00   57.0    68    3.7   271     6.4   972.8    0.00 
 290   18:30   0.00   57.1    71    5.9   283     9.8   973.3    0.00 
 290   18:40   0.00   56.9    73    4.7   272     8.9   973.5    0.00 
 290   18:50   0.00   56.4    74    1.0   223     3.3   973.2    0.00 
 290   19:00   0.00   55.7    75    0.0     0     0.0   973.2    0.00 
 290   19:10   0.00   54.6    76    0.9   285     7.5   973.5    0.00 
 290   19:20   0.00   54.9    78    4.1   268     6.6   973.6    0.00 
 290   19:30   0.00   54.9    79    2.1   270     4.5   973.7    0.00 
 290   19:40   0.00   53.7    79    1.6   325     2.7   973.7    0.00 
 290   19:50   0.00   52.1    81    1.8   354     2.6   973.7    0.00 
 290   20:00   0.00   51.3    82    2.7   357     3.9   974.0    0.00 
 290   20:10   0.00   51.3    81    3.8     2     4.7   974.1    0.00 
 290   20:20   0.00   52.4    78    3.2    17     4.2   974.0    0.00 
 290   20:30   0.00   53.4    78    1.7   354     3.4   974.1    0.00 
 290   20:40   0.00   53.2    75    0.6   302     2.2   974.1    0.00 
 290   20:50   0.00   53.3    76    0.0     0     0.0   974.1    0.00 
 290   21:00   0.00   53.7    75    0.0   301     0.4   974.2    0.00 
 290   21:10   0.00   54.0    74    0.0     0     0.0   974.2    0.00 
 290   21:20   0.00   54.3    74    0.0     0     0.0   974.3    0.00 
 290   21:30   0.00   54.5    75    0.9   351     2.0   974.3    0.00 
 290   21:40   0.00   54.9    75    1.3     0     2.2   974.3    0.00 
 290   21:50   0.00   54.9    74    0.6     0     2.0   974.4    0.00 
 290   22:00   0.00   54.8    73    0.1     0     0.9   974.2    0.00 
 290   22:10   0.00   55.0    74    1.5     6     2.5   974.4    0.00 
 290   22:20   0.00   55.0    72    1.5    21     2.3   974.4    0.00 
 290   22:30   0.00   55.0    72    1.2    21     2.0   974.4    0.00 
 290   22:40   0.00   55.3    73    0.6    14     1.5   974.4    0.00 
 290   22:50   0.00   55.6    72    0.0    20     0.7   974.3    0.00 
 290   23:00   0.00   55.9    72    0.3   357     1.4   974.3    0.00 
 290   23:10   0.00   56.1    71    0.0   336     0.7   974.3    0.00 
 290   23:20   0.00   55.9    72    0.0     0     0.0   974.3    0.00 

Return to Sedgwick Reserve graphs page.


Western Regional Climate Center,wrcc@dri.edu